Latest Coastal Weather Observations for Rosslyn Bay Harbour

IDQ60701

Issued at 8:02 pm EST Friday 29 April 2016 (issued every 10 minutes, with the page automatically refreshed every 10 minutes)

About coastal observations | Map of coastal stations | Coastal observations for QLD | Marine services | Other Formats
Station Details ID: 033208 Name: ROSSLYN BAY NTC AWS Lat: -23.16 Lon: 150.79 Height: 0.0 m
Data from the previous 72 hours. | See also: Recent months for locations in Queensland
Date/Time
EST
Temp

°C
Wind Pressure Rain
since 9am
mm
Weather Cloud Vis
km
Sea
Height
m
Swell
Dir
 
Speed
knots
Gust
knots
hPa Trend Height
m
Period
s
Dir
29/08:00pm 24.8 S 7 11 1018.8 - - - - - - - - -
29/07:30pm 24.5 S 7 13 1018.6 - - - - - - - - -
29/07:00pm 24.5 S 9 12 1018.3 - - - - - - - - -
29/06:30pm 24.7 S 11 16 1018.1 - - - - - - - - -
29/06:00pm 24.4 S 9 13 1017.9 - - - - - - - - -
29/05:30pm 24.5 S 9 14 1017.5 - - - - - - - - -
29/05:00pm 24.7 S 11 17 1017.2 - - - - - - - - -
29/04:30pm 24.8 S 10 15 1017.0 - - - - - - - - -
29/04:00pm 25.0 S 11 17 1016.8 - - - - - - - - -
29/03:30pm 25.1 S 10 15 1016.7 - - - - - - - - -
29/03:00pm 24.6 S 9 15 1016.6 - - - - - - - - -
29/02:30pm 24.6 S 9 16 1016.6 - - - - - - - - -
29/02:00pm 24.5 S 9 16 1016.7 - - - - - - - - -
29/01:30pm 24.5 S 11 15 1016.9 - - - - - - - - -
29/01:00pm 24.5 S 11 17 1017.1 - - - - - - - - -
29/12:30pm 24.6 S 10 16 1017.7 - - - - - - - - -
29/12:00pm 24.2 S 10 16 1018.2 - - - - - - - - -
29/11:30am 23.9 S 11 18 1018.7 - - - - - - - - -
29/11:00am - S 11 20 1019.3 - - - - - - - - -
29/10:30am - S 9 15 1019.8 - - - - - - - - -
29/10:00am - S 11 18 1020.1 - - - - - - - - -
29/09:30am - S 10 20 1020.0 - - - - - - - - -
29/09:00am - S 10 18 1020.1 - - - - - - - - -
29/08:30am 23.3 S 10 19 1019.9 - - - - - - - - -
29/08:00am 23.3 S 11 18 1019.6 - - - - - - - - -
29/07:30am 23.3 S 8 15 1019.4 - - - - - - - - -
29/07:00am 23.1 S 9 17 1019.2 - - - - - - - - -
29/06:30am 23.0 S 5 12 1018.9 - - - - - - - - -
29/06:00am 23.1 S 7 18 1018.6 - - - - - - - - -
29/05:30am 23.3 S 8 17 1018.5 - - - - - - - - -
29/05:00am 23.3 S 7 17 1018.2 - - - - - - - - -
29/04:30am 23.3 S 5 13 1018.0 - - - - - - - - -
29/04:00am 23.3 S 5 12 1018.0 - - - - - - - - -
29/03:30am 22.9 S 4 12 1018.1 - - - - - - - - -
29/03:00am 23.2 S 6 16 1018.2 - - - - - - - - -
29/02:30am 23.0 S 5 15 1018.3 - - - - - - - - -
29/02:00am 23.1 S 7 14 1018.4 - - - - - - - - -
29/01:30am 23.5 S 5 13 1018.5 - - - - - - - - -
29/01:00am 24.5 S 11 18 1018.8 - - - - - - - - -
29/12:30am 24.5 S 12 21 1019.0 - - - - - - - - -
29/12:00am 24.1 S 12 20 1019.2 - - - - - - - - -
 
Date/Time
EST
Temp

°C
Wind Pressure Rain
since 9am
mm
Weather Cloud Vis
km
Sea
Height
m
Swell
Dir
 
Speed
knots
Gust
knots
hPa Trend Height
m
Period
s
Dir
28/11:30pm 24.7 S 10 19 1019.5 - - - - - - - - -
28/11:00pm 24.7 S 12 19 1019.8 - - - - - - - - -
28/10:30pm 24.7 S 12 18 1019.8 - - - - - - - - -
28/10:00pm 24.7 S 12 18 1020.0 - - - - - - - - -
28/09:30pm 24.7 S 12 18 1020.0 - - - - - - - - -
28/09:00pm 24.8 S 13 19 1020.0 - - - - - - - - -
28/08:30pm 24.7 S 12 19 1019.8 - - - - - - - - -
28/08:00pm 24.7 S 10 18 1019.5 - - - - - - - - -
28/07:30pm 24.8 S 12 18 1019.4 - - - - - - - - -
28/07:00pm 24.9 S 12 18 1019.0 - - - - - - - - -
28/06:30pm 24.8 S 12 19 1018.7 - - - - - - - - -
28/06:00pm 24.9 S 12 18 1018.5 - - - - - - - - -
28/05:30pm 24.9 S 13 22 1018.4 - - - - - - - - -
28/05:00pm 25.0 S 12 20 1018.1 - - - - - - - - -
28/04:30pm 25.0 S 13 19 1017.8 - - - - - - - - -
28/04:00pm 24.9 S 13 22 1017.5 - - - - - - - - -
28/03:30pm 25.2 S 13 21 1017.3 - - - - - - - - -
28/03:00pm 25.1 S 13 21 1017.3 - - - - - - - - -
28/02:30pm 25.1 S 13 20 1017.1 - - - - - - - - -
28/02:00pm 25.1 S 13 18 1017.3 - - - - - - - - -
28/01:30pm 25.2 S 13 19 1017.4 - - - - - - - - -
28/01:00pm 23.9 S 11 19 1017.5 - - - - - - - - -
28/12:30pm 24.1 S 12 20 1017.8 - - - - - - - - -
28/12:00pm 23.9 S 12 21 1018.2 - - - - - - - - -
28/11:30am 23.4 S 11 21 1018.5 - - - - - - - - -
28/11:00am 23.4 S 10 17 1018.7 - - - - - - - - -
28/10:30am - S 6 14 1019.1 - - - - - - - - -
28/10:00am - S 8 15 1019.2 - - - - - - - - -
28/09:30am 22.5 S 10 19 1019.2 - - - - - - - - -
28/09:00am 22.7 S 9 15 1019.2 - - - - - - - - -
28/08:30am 22.5 S 7 15 1019.1 - - - - - - - - -
28/08:00am 22.2 S 11 20 1018.5 - - - - - - - - -
28/07:30am 22.2 S 7 17 1018.4 - - - - - - - - -
28/07:00am 22.4 S 10 19 1018.0 - - - - - - - - -
28/06:30am 22.0 S 12 23 1017.7 - - - - - - - - -
28/06:00am 22.6 S 7 19 1017.3 - - - - - - - - -
28/05:30am 22.5 S 11 22 1017.1 - - - - - - - - -
28/05:00am 22.3 S 10 20 1017.2 - - - - - - - - -
28/04:30am 21.7 S 5 10 1017.4 - - - - - - - - -
28/04:00am 21.8 S 7 14 1017.4 - - - - - - - - -
28/03:30am 21.7 S 7 16 1017.3 - - - - - - - - -
28/03:00am 22.4 S 6 17 1017.3 - - - - - - - - -
28/02:30am 22.5 S 10 19 1017.3 - - - - - - - - -
28/02:00am 22.5 S 8 18 1017.7 - - - - - - - - -
28/01:30am 22.5 S 8 19 1017.9 - - - - - - - - -
28/01:00am 22.8 S 9 19 1018.2 - - - - - - - - -
28/12:30am 23.1 S 10 23 1018.3 - - - - - - - - -
28/12:00am 23.9 S 13 21 1018.1 - - - - - - - - -
 
Date/Time
EST
Temp

°C
Wind Pressure Rain
since 9am
mm
Weather Cloud Vis
km
Sea
Height
m
Swell
Dir
 
Speed
knots
Gust
knots
hPa Trend Height
m
Period
s
Dir
27/11:30pm 23.2 S 9 19 1018.5 - - - - - - - - -
27/11:00pm 23.6 S 11 22 1018.7 - - - - - - - - -
27/10:30pm 23.7 S 11 21 1019.0 - - - - - - - - -
27/10:00pm 23.7 S 10 17 1019.0 - - - - - - - - -
27/09:30pm 24.3 S 14 22 1018.9 - - - - - - - - -
27/09:00pm 22.7 S 12 22 1018.8 - - - - - - - - -
27/08:30pm 22.8 S 16 27 1018.7 - - - - - - - - -
27/08:02pm 22.2 S 19 32 1018.5 - - - - - - - - -
27/08:00pm 22.3 S 19 28 1018.4 - - - - - - - - -
27/07:43pm 23.5 S 15 28 1018.2 - - - - - - - - -
27/07:30pm 23.0 S 13 22 1018.1 - - - - - - - - -
27/07:06pm 24.6 S 15 27 1017.7 - - - - - - - - -
27/07:00pm 24.2 S 14 25 1017.7 - - - - - - - - -
27/06:30pm 24.8 S 15 27 1017.6 - - - - - - - - -
27/06:03pm 24.9 S 15 28 1017.2 - - - - - - - - -
27/06:00pm 24.9 S 13 26 1017.2 - - - - - - - - -
27/05:40pm 25.0 S 15 27 1017.1 - - - - - - - - -
27/05:30pm 25.0 S 16 25 1017.0 - - - - - - - - -
27/05:10pm 25.1 S 15 25 1016.8 - - - - - - - - -
27/05:00pm 25.3 S 13 22 1016.8 - - - - - - - - -
27/04:30pm 25.2 S 14 24 1016.7 - - - - - - - - -
27/04:00pm 24.9 S 15 27 1016.4 - - - - - - - - -
27/03:30pm 24.9 S 15 26 1016.2 - - - - - - - - -
27/03:00pm 24.9 S 15 28 1016.1 - - - - - - - - -
27/02:30pm 25.0 S 15 27 1016.2 - - - - - - - - -
27/02:29pm 25.0 S 15 27 1016.2 - - - - - - - - -
27/02:00pm 24.9 S 15 25 1016.0 - - - - - - - - -
27/01:31pm 24.8 S 15 26 1016.4 - - - - - - - - -
27/01:30pm 24.8 S 14 25 1016.4 - - - - - - - - -
27/01:00pm 24.9 S 14 24 1016.7 - - - - - - - - -
27/12:30pm 24.9 S 15 24 1017.1 - - - - - - - - -
27/12:00pm 24.9 S 14 24 1017.5 - - - - - - - - -
27/11:30am 24.6 S 15 28 1018.1 - - - - - - - - -
27/11:06am 24.4 S 16 28 1018.4 - - - - - - - - -
27/11:00am 24.4 S 15 25 1018.4 - - - - - - - - -
27/10:39am 24.1 S 15 25 1018.6 - - - - - - - - -
27/10:30am 24.1 S 13 25 1018.8 - - - - - - - - -
27/10:09am 23.8 S 15 30 1019.0 - - - - - - - - -
27/10:00am 23.7 S 13 23 1019.1 - - - - - - - - -
27/09:30am 23.6 S 13 24 1019.3 - - - - - - - - -
27/09:00am 23.2 S 12 22 1019.1 - - - - - - - - -
27/08:30am 23.2 S 13 22 1018.8 - - - - - - - - -
27/08:00am 23.0 S 12 24 1018.5 - - - - - - - - -
27/07:30am 22.8 S 12 21 1018.5 - - - - - - - - -
27/07:00am 22.8 S 12 24 1018.0 - - - - - - - - -
27/06:30am 22.3 S 12 23 1017.9 - - - - - - - - -
27/06:00am 22.2 S 13 23 1017.6 - - - - - - - - -
27/05:30am 21.7 S 12 22 1017.4 - - - - - - - - -
27/05:00am 21.9 S 12 23 1017.3 - - - - - - - - -
27/04:30am 22.3 S 12 22 1017.1 - - - - - - - - -
27/04:00am 22.3 S 13 23 1017.0 - - - - - - - - -
27/03:30am 22.9 S 9 21 1016.9 - - - - - - - - -
27/03:00am 22.9 S 11 23 1017.0 - - - - - - - - -
27/02:30am 23.1 S 13 25 1017.3 - - - - - - - - -
27/02:00am 23.2 S 12 22 1017.6 - - - - - - - - -
27/01:30am 23.3 S 14 27 1017.8 - - - - - - - - -
27/01:00am 23.0 S 10 20 1018.2 - - - - - - - - -
27/12:30am 23.3 S 13 25 1018.5 - - - - - - - - -
27/12:00am 23.4 S 13 24 1018.7 - - - - - - - - -
 
Date/Time
EST
Temp

°C
Wind Pressure Rain
since 9am
mm
Weather Cloud Vis
km
Sea
Height
m
Swell
Dir
 
Speed
knots
Gust
knots
hPa Trend Height
m
Period
s
Dir
26/11:30pm 23.4 S 12 21 1018.9 - - - - - - - - -
26/11:00pm 23.5 S 14 24 1019.2 - - - - - - - - -
26/10:30pm 23.6 S 15 28 1019.4 - - - - - - - - -
26/10:04pm 23.7 S 15 27 1019.5 - - - - - - - - -
26/10:00pm 23.7 S 14 27 1019.5 - - - - - - - - -
26/09:30pm 23.7 S 17 33 1019.8 - - - - - - - - -
26/09:01pm 23.9 S 15 28 1019.8 - - - - - - - - -
26/09:00pm 23.9 S 14 28 1019.8 - - - - - - - - -
26/08:30pm 24.1 S 18 34 1019.5 - - - - - - - - -

Other Formats:

Comma delimited format used in spreadsheet applications
http://www.bom.gov.au/fwo/IDQ60701/IDQ60701.95298.axf

JavaScript Object Notation format (JSON) in row-major order
http://www.bom.gov.au/fwo/IDQ60701/IDQ60701.95298.json